Time;durP1;ratioP1;P1;durP2;ratioP2;P2;SDS_P1;SDS_P2;PMS_P1;PMS_P2;Temp;Humidity;BMP_temperature;BMP_pressure;BME280_temperature;BME280_humidity;BME280_pressure;Samples;Min_cycle;Max_cycle;Signal;HPM_P1;HPM_P2
2023/03/22 00:00:11;;;;;;;11.70;4.00;;;;;;;8.84;100.00;101021.38;5068976;28;20029;-47
2023/03/22 00:02:37;;;;;;;11.13;4.15;;;;;;;8.77;100.00;101030.50;5069748;28;20059;-47
2023/03/22 00:05:02;;;;;;;11.55;3.92;;;;;;;8.77;100.00;101020.25;5069990;28;20048;-45
2023/03/22 00:07:28;;;;;;;11.93;3.95;;;;;;;8.72;100.00;101016.66;5068053;28;20491;-48
2023/03/22 00:09:54;;;;;;;11.68;3.92;;;;;;;8.70;100.00;101019.97;5077974;28;20056;-46
2023/03/22 00:12:19;;;;;;;10.23;3.88;;;;;;;8.67;100.00;101014.72;5057699;28;20029;-46
2023/03/22 00:14:45;;;;;;;10.93;3.80;;;;;;;8.58;100.00;101008.44;5072757;28;20506;-49
2023/03/22 00:17:10;;;;;;;8.32;4.00;;;;;;;8.59;100.00;101005.06;5070468;28;20029;-48
2023/03/22 00:19:36;;;;;;;8.70;3.90;;;;;;;8.59;100.00;101004.19;5073416;28;20032;-47
2023/03/22 00:22:02;;;;;;;9.65;3.72;;;;;;;8.54;100.00;100995.44;5079674;28;20044;-49
2023/03/22 00:24:27;;;;;;;13.90;4.03;;;;;;;8.52;100.00;101000.50;5074683;28;20039;-46
2023/03/22 00:26:53;;;;;;;9.30;4.10;;;;;;;8.48;100.00;100995.19;5082068;28;20032;-46
2023/03/22 00:29:21;;;;;;;10.70;3.90;;;;;;;8.43;100.00;100991.59;5077517;28;20483;-49
2023/03/22 00:31:47;;;;;;;11.15;4.07;;;;;;;8.34;100.00;100987.84;5075684;28;20341;-47
2023/03/22 00:34:13;;;;;;;14.57;4.13;;;;;;;8.28;100.00;100991.84;5074390;28;20402;-50
2023/03/22 00:36:38;;;;;;;11.77;4.43;;;;;;;8.22;100.00;100981.34;5075830;28;20045;-47
2023/03/22 00:39:04;;;;;;;12.20;3.90;;;;;;;8.17;100.00;100977.72;5072405;28;20043;-47
2023/03/22 00:41:29;;;;;;;9.07;3.72;;;;;;;8.10;100.00;100970.63;5074610;28;20056;-45
2023/03/22 00:43:55;;;;;;;11.60;3.80;;;;;;;8.03;100.00;100969.50;5079202;28;20126;-49
2023/03/22 00:46:20;;;;;;;11.73;3.92;;;;;;;8.01;100.00;100969.47;5059733;28;20039;-51
2023/03/22 00:48:46;;;;;;;11.98;3.67;;;;;;;7.98;100.00;100960.75;5056546;28;20354;-47
2023/03/22 00:51:12;;;;;;;9.90;3.80;;;;;;;7.94;100.00;100952.06;5056157;28;20074;-50
2023/03/22 00:53:39;;;;;;;9.57;3.40;;;;;;;7.93;100.00;100954.59;5072835;28;20032;-47
2023/03/22 00:56:05;;;;;;;9.95;3.47;;;;;;;7.92;100.00;100955.41;5073294;28;20035;-46
2023/03/22 00:58:31;;;;;;;11.00;3.42;;;;;;;7.93;100.00;100959.72;5074796;28;20579;-47
2023/03/22 01:00:56;;;;;;;13.75;4.18;;;;;;;7.99;100.00;100958.25;5071809;28;20111;-47
2023/03/22 01:03:23;;;;;;;9.40;3.70;;;;;;;7.96;100.00;100950.47;5073001;28;20059;-44
2023/03/22 01:05:50;;;;;;;10.60;3.80;;;;;;;7.96;100.00;100947.91;5071643;28;20037;-45
2023/03/22 01:08:16;;;;;;;10.07;3.92;;;;;;;7.96;100.00;100942.78;5076796;28;20028;-48
2023/03/22 01:10:43;;;;;;;13.40;3.97;;;;;;;7.93;100.00;100937.53;5073764;28;20483;-46
2023/03/22 01:13:10;;;;;;;9.45;3.53;;;;;;;7.93;100.00;100939.22;5075195;28;20040;-46
2023/03/22 01:15:35;;;;;;;9.27;3.80;;;;;;;7.93;100.00;100931.53;5073007;28;20461;-45
2023/03/22 01:18:01;;;;;;;12.93;4.07;;;;;;;7.94;100.00;100929.03;5074743;28;20107;-49
2023/03/22 01:20:29;;;;;;;8.95;3.67;;;;;;;7.93;100.00;100919.59;5074703;28;20033;-45
2023/03/22 01:22:55;;;;;;;10.35;4.40;;;;;;;7.91;100.00;100911.00;5071269;28;20133;-46
2023/03/22 01:25:20;;;;;;;11.35;3.97;;;;;;;7.93;100.00;100905.94;5055821;28;20096;-46
2023/03/22 01:27:46;;;;;;;12.65;4.75;;;;;;;7.97;100.00;100893.31;5072417;28;20280;-46
2023/03/22 01:30:12;;;;;;;14.00;5.40;;;;;;;8.07;100.00;100892.00;5075508;28;20040;-47
2023/03/22 01:32:37;;;;;;;18.15;5.80;;;;;;;8.11;100.00;100883.59;5072059;28;20028;-45
2023/03/22 01:35:04;;;;;;;13.25;6.32;;;;;;;8.22;100.00;100884.00;5074989;28;20024;-46
2023/03/22 01:37:31;;;;;;;11.98;6.72;;;;;;;8.31;100.00;100877.56;5070612;28;20047;-45
2023/03/22 01:39:57;;;;;;;14.43;6.80;;;;;;;8.38;100.00;100872.69;5054627;28;20029;-46
2023/03/22 01:42:23;;;;;;;15.15;7.32;;;;;;;8.44;100.00;100872.94;5071864;28;20053;-46
2023/03/22 01:45:13;;;;;;;16.35;8.15;;;;;;;8.48;100.00;100870.50;5071500;28;20078;-48
2023/03/22 01:47:47;;;;;;;14.35;7.85;;;;;;;8.54;100.00;100855.34;5068911;28;20039;-47
2023/03/22 01:50:13;;;;;;;18.90;8.52;;;;;;;8.59;100.00;100846.13;5070402;28;20059;-45
2023/03/22 01:52:40;;;;;;;14.93;8.45;;;;;;;8.65;100.00;100839.50;5069902;28;20040;-48
2023/03/22 01:55:08;;;;;;;15.68;8.70;;;;;;;8.69;100.00;100838.78;5076808;28;20044;-45
2023/03/22 01:57:36;;;;;;;13.95;9.00;;;;;;;8.76;100.00;100835.63;5071519;28;20039;-45
2023/03/22 02:00:14;;;;;;;15.50;9.05;;;;;;;8.78;100.00;100823.72;5073022;28;20047;-46
2023/03/22 02:02:41;;;;;;;14.25;9.18;;;;;;;8.81;100.00;100819.56;5053557;28;20394;-45
2023/03/22 02:05:08;;;;;;;17.95;9.13;;;;;;;8.82;100.00;100818.75;5074412;28;20036;-48
2023/03/22 02:07:35;;;;;;;14.48;9.90;;;;;;;8.88;100.00;100819.78;5068979;28;20039;-47
2023/03/22 02:10:00;;;;;;;16.75;8.95;;;;;;;8.93;100.00;100808.88;5073742;28;20089;-46
2023/03/22 02:12:25;;;;;;;17.27;9.95;;;;;;;8.99;100.00;100806.50;5071524;28;20041;-45
2023/03/22 02:15:12;;;;;;;14.88;9.60;;;;;;;9.00;100.00;100805.69;5071886;28;20042;-47
2023/03/22 02:17:50;;;;;;;20.17;9.95;;;;;;;9.04;100.00;100804.97;5072980;28;20027;-46
2023/03/22 02:20:36;;;;;;;15.00;9.68;;;;;;;9.12;100.00;100807.78;5073351;28;20128;-47
2023/03/22 02:23:05;;;;;;;15.10;10.68;;;;;;;9.19;100.00;100809.72;5071638;28;20131;-46
2023/03/22 02:25:56;;;;;;;16.38;10.05;;;;;;;9.21;100.00;100802.06;5054215;28;20061;-46
2023/03/22 02:28:49;;;;;;;15.45;10.32;;;;;;;9.23;100.00;100803.00;5069358;28;20154;-45
2023/03/22 02:32:05;;;;;;;15.00;9.80;;;;;;;9.28;100.00;100792.06;5057363;28;20028;-46
2023/03/22 02:34:58;;;;;;;17.33;10.32;;;;;;;9.32;100.00;100796.47;4982047;28;20030;-48
2023/03/22 02:37:38;;;;;;;15.82;10.50;;;;;;;9.33;100.00;100797.31;5072959;28;20437;-49
2023/03/22 02:40:48;;;;;;;17.35;9.88;;;;;;;9.35;100.00;100798.28;5078346;28;20115;-45
2023/03/22 02:43:29;;;;;;;13.80;9.82;;;;;;;9.35;100.00;100793.13;5054439;28;20051;-45
2023/03/22 02:46:04;;;;;;;14.48;10.07;;;;;;;9.35;100.00;100798.28;5072661;28;20188;-47
2023/03/22 02:48:40;;;;;;;15.23;10.13;;;;;;;9.38;100.00;100790.66;5075441;28;20084;-50
2023/03/22 02:51:17;;;;;;;15.82;9.63;;;;;;;9.40;100.00;100792.47;5077395;28;20047;-49
2023/03/22 02:54:03;;;;;;;16.50;10.13;;;;;;;9.42;100.00;100784.81;5073068;28;20028;-50
2023/03/22 02:56:41;;;;;;;14.40;9.80;;;;;;;9.42;100.00;100779.69;5072268;28;20032;-47
2023/03/22 02:59:10;;;;;;;13.30;9.23;;;;;;;9.42;100.00;100771.09;5074506;28;20067;-47
2023/03/22 03:01:43;;;;;;;13.90;9.23;;;;;;;9.41;100.00;100770.25;5073457;28;20020;-44
2023/03/22 03:04:15;;;;;;;14.88;9.20;;;;;;;9.43;100.00;100773.72;5077633;28;20028;-48
2023/03/22 03:06:47;;;;;;;15.48;8.77;;;;;;;9.39;100.00;100765.03;5071315;28;20139;-48
2023/03/22 03:09:19;;;;;;;11.93;8.75;;;;;;;9.37;100.00;100759.00;5077599;28;20031;-49
2023/03/22 03:11:48;;;;;;;15.18;9.48;;;;;;;9.39;100.00;100767.59;5073133;28;20043;-46
2023/03/22 03:14:26;;;;;;;11.65;8.30;;;;;;;9.40;100.00;100761.66;5053304;28;20032;-46
2023/03/22 03:17:01;;;;;;;14.30;8.40;;;;;;;9.39;100.00;100757.34;5074446;28;20035;-45
2023/03/22 03:19:56;;;;;;;15.75;8.27;;;;;;;9.44;100.00;100754.91;5073788;28;20020;-46
2023/03/22 03:22:39;;;;;;;11.90;7.55;;;;;;;9.46;100.00;100760.09;5040639;28;20059;-48
2023/03/22 03:25:21;;;;;;;12.50;7.32;;;;;;;9.43;100.00;100752.31;5075595;28;20027;-47
2023/03/22 03:27:58;;;;;;;12.15;7.20;;;;;;;9.50;100.00;100764.50;5078510;28;20063;-46
2023/03/22 03:30:37;;;;;;;13.48;7.07;;;;;;;9.46;100.00;100749.81;5074765;28;20478;-46
2023/03/22 03:33:11;;;;;;;13.13;7.07;;;;;;;9.44;100.00;100754.91;5069661;28;20039;-50
2023/03/22 03:35:52;;;;;;;12.32;7.07;;;;;;;9.44;100.00;100754.91;5071614;28;20543;-49
2023/03/22 03:38:22;;;;;;;11.27;6.45;;;;;;;9.44;100.00;100765.19;5071183;28;20022;-47
2023/03/22 03:40:53;;;;;;;11.95;6.07;;;;;;;9.46;100.00;100757.53;5074414;28;20031;-47
2023/03/22 03:43:19;;;;;;;12.05;6.93;;;;;;;9.42;100.00;100753.13;5077922;28;20036;-49
2023/03/22 03:45:45;;;;;;;14.15;6.60;;;;;;;9.39;100.00;100748.75;5072337;28;20415;-50
2023/03/22 03:48:18;;;;;;;11.70;6.63;;;;;;;9.35;100.00;100749.50;5078661;28;20033;-49
2023/03/22 03:50:45;;;;;;;10.55;6.30;;;;;;;9.30;100.00;100753.63;5071666;28;20032;-45
2023/03/22 03:53:10;;;;;;;9.52;5.68;;;;;;;9.28;100.00;100761.28;5074164;28;20487;-47
2023/03/22 03:55:36;;;;;;;10.90;5.78;;;;;;;9.30;100.00;100772.47;5071306;28;20040;-46
2023/03/22 03:58:01;;;;;;;12.95;6.05;;;;;;;9.26;100.00;100760.34;5073354;28;20540;-47
2023/03/22 04:00:27;;;;;;;9.75;5.32;;;;;;;9.25;100.00;100765.44;5072247;28;20111;-45
2023/03/22 04:02:52;;;;;;;11.07;5.65;;;;;;;9.26;100.00;100767.16;5072865;28;20029;-45
2023/03/22 04:05:18;;;;;;;9.80;5.28;;;;;;;9.24;100.00;100759.44;5075649;28;20124;-45
2023/03/22 04:07:43;;;;;;;11.05;5.00;;;;;;;9.25;100.00;100760.31;5070456;28;20024;-46
2023/03/22 04:10:09;;;;;;;16.00;5.90;;;;;;;9.18;100.00;100758.38;5060886;28;20445;-48
2023/03/22 04:12:34;;;;;;;10.07;4.88;;;;;;;9.17;100.00;100747.25;5053353;28;20040;-46
2023/03/22 04:15:00;;;;;;;10.45;4.93;;;;;;;9.20;100.00;100759.28;5074327;28;20519;-45
2023/03/22 04:17:27;;;;;;;12.70;5.00;;;;;;;9.17;100.00;100751.50;5075316;28;20028;-45
2023/03/22 04:19:55;;;;;;;10.52;4.68;;;;;;;9.19;100.00;100757.53;5076062;28;20111;-46
2023/03/22 04:22:21;;;;;;;10.98;5.03;;;;;;;9.14;100.00;100752.25;5048133;28;20513;-47
2023/03/22 04:24:48;;;;;;;10.80;4.82;;;;;;;9.15;100.00;100754.00;5072112;28;20059;-47
2023/03/22 04:27:17;;;;;;;13.50;4.70;;;;;;;9.16;100.00;100749.72;5071199;28;20123;-45
2023/03/22 04:29:47;;;;;;;11.68;4.43;;;;;;;9.18;100.00;100748.97;5073283;28;20067;-45
2023/03/22 04:32:15;;;;;;;8.38;4.00;;;;;;;9.19;100.00;100748.16;5069059;28;20495;-46
2023/03/22 04:34:41;;;;;;;11.45;4.55;;;;;;;9.11;100.00;100741.91;5069514;28;20028;-46
2023/03/22 04:37:06;;;;;;;7.70;4.00;;;;;;;9.08;100.00;100741.81;5052212;28;20025;-47
2023/03/22 04:39:32;;;;;;;10.15;4.30;;;;;;;9.04;100.00;100738.28;5070775;28;20036;-49
2023/03/22 04:41:57;;;;;;;14.88;5.07;;;;;;;9.01;100.00;100735.59;5078905;28;20040;-48
2023/03/22 04:44:23;;;;;;;8.25;3.95;;;;;;;8.97;100.00;100731.19;5077054;28;20124;-46
2023/03/22 04:46:48;;;;;;;11.82;4.53;;;;;;;8.94;100.00;100738.81;5072684;28;20368;-45
2023/03/22 04:49:13;;;;;;;9.68;4.05;;;;;;;8.95;100.00;100732.84;5050795;28;20020;-46
2023/03/22 04:51:39;;;;;;;10.00;3.90;;;;;;;9.00;100.00;100735.56;5070947;28;20072;-45
2023/03/22 04:54:04;;;;;;;10.65;4.38;;;;;;;8.98;100.00;100732.06;5052991;28;20159;-47
2023/03/22 04:56:30;;;;;;;8.75;3.65;;;;;;;8.99;100.00;100734.69;5071555;28;20025;-46
2023/03/22 04:58:55;;;;;;;11.32;4.05;;;;;;;8.99;100.00;100729.56;5068413;28;20024;-46
2023/03/22 05:01:20;;;;;;;12.85;4.15;;;;;;;8.98;100.00;100732.97;5070983;28;20033;-47
2023/03/22 05:03:46;;;;;;;8.20;3.72;;;;;;;8.97;100.00;100726.06;5072038;28;20032;-48
2023/03/22 05:06:12;;;;;;;7.63;4.47;;;;;;;9.00;100.00;100721.03;5054307;28;20534;-47
2023/03/22 05:08:38;;;;;;;12.15;4.40;;;;;;;8.99;100.00;100721.88;5080914;28;20027;-47
2023/03/22 05:11:09;;;;;;;11.82;3.78;;;;;;;8.96;100.00;100719.19;5073096;28;20024;-45
2023/03/22 05:13:36;;;;;;;10.35;3.90;;;;;;;8.98;100.00;100722.69;5071148;28;20024;-49
2023/03/22 05:16:03;;;;;;;10.20;3.67;;;;;;;8.98;100.00;100712.44;5080612;28;20588;-48
2023/03/22 05:18:29;;;;;;;8.00;4.03;;;;;;;8.98;100.00;100717.56;5080425;28;20043;-49
2023/03/22 05:20:56;;;;;;;12.80;3.83;;;;;;;9.02;100.00;100713.41;5062752;28;20028;-46
2023/03/22 05:23:22;;;;;;;10.18;4.30;;;;;;;8.95;100.00;100712.31;5078520;28;20432;-48
2023/03/22 05:25:49;;;;;;;7.47;3.70;;;;;;;8.92;100.00;100714.81;5074706;28;20038;-46
2023/03/22 05:28:18;;;;;;;9.00;3.72;;;;;;;8.96;100.00;100713.19;5078888;28;20028;-47
2023/03/22 05:30:44;;;;;;;8.05;3.20;;;;;;;8.94;100.00;100717.41;5075375;28;20390;-48
2023/03/22 05:33:10;;;;;;;7.63;3.20;;;;;;;8.95;100.00;100714.91;5074969;28;20070;-46
2023/03/22 05:35:38;;;;;;;11.23;3.65;;;;;;;9.01;100.00;100712.53;5075029;28;20475;-48
2023/03/22 05:38:05;;;;;;;9.77;3.38;;;;;;;8.97;100.00;100720.94;5076524;28;20125;-46
2023/03/22 05:40:31;;;;;;;9.07;3.58;;;;;;;8.95;100.00;100708.91;5074726;28;20039;-47
2023/03/22 05:42:56;;;;;;;9.52;3.20;;;;;;;8.94;100.00;100705.47;5074056;28;20431;-47
2023/03/22 05:45:22;;;;;;;8.38;3.42;;;;;;;8.95;100.00;100716.59;5063438;28;20073;-47
2023/03/22 05:47:48;;;;;;;9.20;3.25;;;;;;;8.89;100.00;100709.56;5081966;28;20085;-45
2023/03/22 05:50:19;;;;;;;10.88;3.42;;;;;;;8.95;100.00;100708.91;5074910;28;20127;-44
2023/03/22 05:52:44;;;;;;;10.73;3.28;;;;;;;8.92;100.00;100713.91;5078875;28;20058;-46
2023/03/22 05:55:12;;;;;;;9.10;3.30;;;;;;;8.94;100.00;100712.28;5055908;28;20391;-46
2023/03/22 05:57:39;;;;;;;11.32;3.35;;;;;;;8.95;100.00;100722.59;5064607;28;20077;-49
2023/03/22 06:00:12;;;;;;;11.80;2.92;;;;;;;8.97;100.00;100723.50;5076206;28;20028;-48
2023/03/22 06:02:40;;;;;;;11.23;3.00;;;;;;;9.02;100.00;100724.53;5072146;28;20039;-47
2023/03/22 06:05:09;;;;;;;10.65;2.83;;;;;;;9.02;100.00;100716.81;5078287;28;20032;-50
2023/03/22 06:07:35;;;;;;;6.45;2.72;;;;;;;9.03;100.00;100716.00;5075121;28;20020;-49
2023/03/22 06:10:00;;;;;;;7.60;2.40;;;;;;;9.04;100.00;100717.78;5073215;28;20028;-50
2023/03/22 06:12:26;;;;;;;13.32;2.75;;;;;;;9.12;100.00;100720.56;5072308;28;20021;-49
2023/03/22 06:14:51;;;;;;;12.18;3.08;;;;;;;9.07;100.00;100706.72;5072385;28;20086;-47
2023/03/22 06:17:18;;;;;;;13.68;2.72;;;;;;;9.09;100.00;100700.81;5052527;28;20032;-46
2023/03/22 06:19:44;;;;;;;5.90;2.60;;;;;;;9.12;100.00;100702.63;5070901;28;20142;-54
2023/03/22 06:22:09;;;;;;;10.88;2.60;;;;;;;9.16;100.00;100706.13;5076202;28;20568;-45
2023/03/22 06:24:35;;;;;;;10.82;2.65;;;;;;;9.19;100.00;100709.66;5072689;28;20020;-46
2023/03/22 06:27:01;;;;;;;9.85;2.50;;;;;;;9.22;100.00;100703.75;5071061;28;20742;-49
2023/03/22 06:29:26;;;;;;;7.20;2.20;;;;;;;9.22;100.00;100711.44;5076181;28;20127;-48
2023/03/22 06:31:52;;;;;;;9.93;2.67;;;;;;;9.23;100.00;100715.78;5078266;28;20526;-49
2023/03/22 06:34:17;;;;;;;7.88;2.60;;;;;;;9.28;99.97;100719.34;5073702;28;20029;-44
2023/03/22 06:36:42;;;;;;;11.25;3.28;;;;;;;9.31;99.75;100711.75;5075129;28;20039;-47
2023/03/22 06:39:08;;;;;;;11.82;3.17;;;;;;;9.33;99.56;100700.69;5070628;28;20234;-45
2023/03/22 06:41:34;;;;;;;8.52;2.92;;;;;;;9.40;98.78;100707.78;5071575;28;20403;-45
2023/03/22 06:43:59;;;;;;;7.88;2.40;;;;;;;9.46;98.73;100719.88;5074953;28;20097;-45
2023/03/22 06:46:25;;;;;;;14.93;3.10;;;;;;;9.51;98.36;100720.03;5071397;28;20627;-46
2023/03/22 06:48:50;;;;;;;10.88;3.03;;;;;;;9.50;98.39;100716.59;5079466;28;20413;-47
2023/03/22 06:51:16;;;;;;;11.32;2.90;;;;;;;9.54;98.34;100709.88;5076448;28;20039;-48
2023/03/22 06:53:41;;;;;;;11.93;3.40;;;;;;;9.59;98.21;100719.47;5058821;28;20474;-46
2023/03/22 06:56:07;;;;;;;10.63;3.20;;;;;;;9.64;98.10;100707.59;5073266;28;20028;-45
2023/03/22 06:58:32;;;;;;;10.95;3.35;;;;;;;9.73;98.27;100709.59;5072762;28;20083;-47
2023/03/22 07:00:57;;;;;;;11.50;3.38;;;;;;;9.87;96.88;100710.84;5071149;28;20028;-47
2023/03/22 07:03:23;;;;;;;9.60;3.42;;;;;;;9.97;95.71;100721.38;5073174;28;20082;-47
2023/03/22 07:05:49;;;;;;;10.73;3.53;;;;;;;10.01;96.49;100713.81;5073693;28;20475;-45
2023/03/22 07:08:15;;;;;;;11.27;3.50;;;;;;;10.05;95.26;100705.34;5073989;28;20501;-45
2023/03/22 07:10:41;;;;;;;7.85;3.20;;;;;;;10.04;95.27;100721.59;5056071;28;20407;-48
2023/03/22 07:13:06;;;;;;;10.20;3.47;;;;;;;10.03;94.74;100712.16;5073338;28;20089;-45
2023/03/22 07:15:33;;;;;;;12.63;3.55;;;;;;;10.04;94.99;100706.19;5071782;28;20385;-46
2023/03/22 07:18:00;;;;;;;13.85;3.63;;;;;;;9.99;95.51;100710.31;5072657;28;20494;-45
2023/03/22 07:20:26;;;;;;;11.73;3.60;;;;;;;10.01;95.77;100711.25;5054341;28;20394;-45
2023/03/22 07:22:51;;;;;;;12.63;4.07;;;;;;;9.99;95.30;100710.31;5069290;28;20031;-45
2023/03/22 07:25:17;;;;;;;9.93;3.60;;;;;;;10.02;94.70;100715.56;5070554;28;20035;-45
2023/03/22 07:27:43;;;;;;;10.18;3.30;;;;;;;10.06;94.94;100707.09;5070935;28;20416;-46
2023/03/22 07:30:08;;;;;;;13.57;3.75;;;;;;;10.10;94.18;100708.91;5072873;28;20503;-46
2023/03/22 07:32:34;;;;;;;13.98;3.70;;;;;;;10.15;94.01;100717.63;5069996;28;20116;-47
2023/03/22 07:34:59;;;;;;;10.48;3.50;;;;;;;10.21;93.14;100717.78;5056195;28;20390;-46
2023/03/22 07:37:24;;;;;;;10.75;3.60;;;;;;;10.26;92.81;100727.38;5071443;28;20028;-49
2023/03/22 07:39:50;;;;;;;11.75;3.67;;;;;;;10.25;93.41;100733.31;5072770;28;20024;-46
2023/03/22 07:42:15;;;;;;;8.95;3.58;;;;;;;10.28;92.19;100718.00;5076765;28;20123;-46
2023/03/22 07:44:41;;;;;;;11.60;3.20;;;;;;;10.31;91.97;100718.94;5072083;28;20025;-46
2023/03/22 07:47:06;;;;;;;17.00;4.25;;;;;;;10.32;91.93;100724.97;5070593;28;20062;-49
2023/03/22 07:49:32;;;;;;;14.30;3.80;;;;;;;10.33;91.40;100717.28;5068101;28;20054;-47
2023/03/22 07:51:57;;;;;;;9.93;3.70;;;;;;;10.38;91.71;100727.69;5081611;28;20024;-45
2023/03/22 07:54:22;;;;;;;9.93;4.10;;;;;;;10.44;91.38;100731.31;5079347;28;20031;-46
2023/03/22 07:56:48;;;;;;;13.15;4.20;;;;;;;10.47;91.25;100725.34;5058359;28;20037;-46
2023/03/22 07:59:15;;;;;;;13.00;4.50;;;;;;;10.49;90.90;100733.97;5080453;28;20108;-44
2023/03/22 08:01:41;;;;;;;8.95;3.70;;;;;;;10.47;90.24;100728.78;5075812;28;20368;-45
2023/03/22 08:04:06;;;;;;;9.90;4.05;;;;;;;10.50;89.76;100728.03;5077353;28;20807;-48
2023/03/22 08:06:31;;;;;;;13.35;3.70;;;;;;;10.51;89.23;100734.91;5076171;28;20028;-47
2023/03/22 08:08:58;;;;;;;9.90;3.83;;;;;;;10.53;88.68;100734.94;5055404;28;20028;-48
2023/03/22 08:11:23;;;;;;;9.90;3.60;;;;;;;10.58;88.23;100733.34;5076673;28;20031;-47
2023/03/22 08:13:49;;;;;;;13.27;3.75;;;;;;;10.59;88.02;100735.97;5070480;28;20025;-49
2023/03/22 08:16:15;;;;;;;10.50;3.50;;;;;;;10.64;87.29;100726.66;5072739;28;20428;-46
2023/03/22 08:18:41;;;;;;;10.85;3.20;;;;;;;10.71;87.92;100733.69;5075125;28;20158;-45
2023/03/22 08:21:06;;;;;;;13.20;3.13;;;;;;;10.80;86.30;100720.22;5074848;28;20032;-46
2023/03/22 08:23:32;;;;;;;10.27;3.08;;;;;;;10.88;84.83;100734.13;5074834;28;20054;-46
2023/03/22 08:25:57;;;;;;;5.97;2.45;;;;;;;10.92;84.94;100725.66;5079640;28;20028;-45
2023/03/22 08:28:23;;;;;;;10.50;2.90;;;;;;;11.02;84.46;100726.72;5076697;28;20036;-45
2023/03/22 08:30:50;;;;;;;12.50;3.10;;;;;;;11.16;84.43;100727.94;5073117;28;20335;-48
2023/03/22 08:33:15;;;;;;;12.02;3.03;;;;;;;11.30;83.39;100732.53;5076423;28;20028;-44
2023/03/22 08:35:41;;;;;;;10.68;2.78;;;;;;;11.37;82.56;100729.28;5076114;28;20442;-44
2023/03/22 08:38:07;;;;;;;14.98;2.95;;;;;;;11.42;82.52;100725.97;5077243;28;20059;-47
2023/03/22 08:40:32;;;;;;;11.27;2.50;;;;;;;11.47;81.51;100710.63;5075677;28;20089;-45
2023/03/22 08:42:58;;;;;;;10.90;2.72;;;;;;;11.54;81.41;100736.53;5083925;28;20059;-46
2023/03/22 08:45:24;;;;;;;11.68;2.10;;;;;;;11.53;80.65;100718.47;5065509;28;20040;-48
2023/03/22 08:47:49;;;;;;;14.05;2.53;;;;;;;11.53;81.43;100710.75;5062165;28;20024;-46
2023/03/22 08:50:15;;;;;;;8.50;1.98;;;;;;;11.60;80.95;100710.06;5077459;28;20031;-47
2023/03/22 08:52:40;;;;;;;10.80;2.75;;;;;;;11.64;81.07;100716.97;5054721;28;20479;-47
2023/03/22 08:55:07;;;;;;;10.80;1.95;;;;;;;11.71;80.72;100715.41;5081654;28;20100;-49
2023/03/22 08:57:34;;;;;;;11.15;2.30;;;;;;;11.72;79.34;100715.47;5081469;28;20059;-50
2023/03/22 08:59:59;;;;;;;11.18;2.35;;;;;;;11.76;79.63;100712.09;5078338;28;20115;-47
2023/03/22 09:02:25;;;;;;;14.68;2.00;;;;;;;11.87;80.03;100716.63;5077876;28;20177;-47
2023/03/22 09:04:51;;;;;;;9.27;2.22;;;;;;;11.96;78.80;100696.22;5077567;28;20029;-51
2023/03/22 09:07:19;;;;;;;11.82;2.40;;;;;;;12.02;77.92;100702.38;5075588;28;20033;-49
2023/03/22 09:09:45;;;;;;;7.90;2.05;;;;;;;12.00;78.48;100716.03;5077015;28;20478;-51
2023/03/22 09:12:10;;;;;;;9.90;2.70;;;;;;;12.00;78.02;100713.47;5077286;28;20029;-50
2023/03/22 09:14:35;;;;;;;10.15;2.50;;;;;;;12.01;76.97;100697.16;5076006;28;20153;-50
2023/03/22 09:17:01;;;;;;;17.05;2.35;;;;;;;12.01;78.40;100699.72;5077702;28;20146;-51
2023/03/22 09:19:27;;;;;;;12.45;2.10;;;;;;;12.10;77.97;100688.75;5077401;28;20035;-52
2023/03/22 09:21:52;;;;;;;9.85;1.90;;;;;;;12.19;77.06;100702.66;5073989;28;20132;-47
2023/03/22 09:24:18;;;;;;;6.93;2.10;;;;;;;12.19;76.25;100700.09;5072961;28;20081;-50
2023/03/22 09:26:43;;;;;;;8.75;1.95;;;;;;;12.21;76.30;100697.56;5072571;28;20036;-48
2023/03/22 09:29:09;;;;;;;11.13;2.03;;;;;;;12.18;75.21;100694.91;5078864;28;20024;-50
2023/03/22 09:31:35;;;;;;;10.13;1.80;;;;;;;12.08;75.71;100689.59;5079547;28;20467;-47
2023/03/22 09:34:00;;;;;;;8.40;2.00;;;;;;;12.01;77.05;100689.41;5072965;28;20391;-51
2023/03/22 09:36:25;;;;;;;10.45;1.88;;;;;;;11.99;77.51;100696.25;5074623;28;20035;-47
2023/03/22 09:38:51;;;;;;;10.27;1.95;;;;;;;11.96;76.60;100696.22;5072997;28;20340;-50
2023/03/22 09:41:20;;;;;;;5.20;1.73;;;;;;;11.92;76.72;100697.00;5077431;28;20036;-50
2023/03/22 09:43:50;;;;;;;10.25;2.28;;;;;;;11.96;77.08;100681.63;5077039;28;20125;-48
2023/03/22 09:46:36;;;;;;;13.13;2.35;;;;;;;11.98;76.53;100684.22;5081059;28;20062;-48
2023/03/22 09:49:06;;;;;;;10.15;1.90;;;;;;;11.91;77.01;100682.38;5082658;28;20027;-51
2023/03/22 09:51:37;;;;;;;11.65;2.17;;;;;;;11.93;77.50;100681.56;5062110;28;20047;-52
2023/03/22 09:54:08;;;;;;;5.40;1.70;;;;;;;11.92;77.15;100687.56;5072369;28;20182;-51
2023/03/22 09:56:34;;;;;;;8.35;1.80;;;;;;;11.93;76.73;100680.69;5077019;28;20020;-49
2023/03/22 09:59:20;;;;;;;12.77;2.25;;;;;;;11.94;77.71;100691.00;5079799;28;20051;-48
2023/03/22 10:01:51;;;;;;;8.73;2.08;;;;;;;11.92;77.19;100699.56;5080207;28;20024;-49
2023/03/22 10:04:48;;;;;;;9.02;1.80;;;;;;;11.93;77.00;100691.00;5079548;28;20032;-48
2023/03/22 10:07:26;;;;;;;6.88;1.90;;;;;;;11.91;76.88;100693.53;5077287;28;20029;-50
2023/03/22 10:10:18;;;;;;;9.07;1.95;;;;;;;11.87;76.69;100686.59;5058556;28;20031;-47
2023/03/22 10:13:04;;;;;;;9.95;1.90;;;;;;;11.83;77.13;100687.38;5079828;28;20020;-48
2023/03/22 10:15:37;;;;;;;5.65;1.90;;;;;;;11.84;77.98;100696.84;5084567;28;20077;-48
2023/03/22 10:18:06;;;;;;;9.65;1.90;;;;;;;11.76;78.45;100701.78;5078935;28;20413;-50
2023/03/22 10:20:42;;;;;;;8.02;1.92;;;;;;;11.69;79.29;100704.22;5070765;28;20012;-51
2023/03/22 10:23:26;;;;;;;13.98;2.25;;;;;;;11.60;80.69;100704.91;5078083;28;20483;-51
2023/03/22 10:25:55;;;;;;;9.20;2.00;;;;;;;11.52;81.73;100714.16;5079402;28;20501;-50
2023/03/22 10:28:25;;;;;;;8.40;1.92;;;;;;;11.41;85.42;100705.34;5077319;28;20024;-51
2023/03/22 10:30:56;;;;;;;9.15;1.80;;;;;;;11.27;88.73;100717.88;5075606;28;20489;-47
2023/03/22 10:33:30;;;;;;;8.05;1.92;;;;;;;11.10;89.59;100711.47;5080043;28;20107;-46
2023/03/22 10:35:55;;;;;;;7.32;1.90;;;;;;;11.00;93.50;100718.13;5078642;28;20410;-47
2023/03/22 10:38:25;;;;;;;8.50;2.05;;;;;;;10.93;93.90;100716.25;5087550;28;20024;-49
2023/03/22 10:40:52;;;;;;;;;;;;;;;10.92;92.86;100735.06;5076226;28;20050;-46
2023/03/22 10:43:27;;;;;;;10.70;2.00;;;;;;;10.69;96.83;100711.34;5080364;28;19920;-50
2023/03/22 10:45:55;;;;;;;12.18;2.40;;;;;;;10.57;100.00;100711.91;5072968;28;20055;-48
2023/03/22 10:48:31;;;;;;;11.73;2.42;;;;;;;10.54;100.00;100711.81;5076407;28;20024;-50
2023/03/22 10:50:58;;;;;;;17.20;2.60;;;;;;;10.51;100.00;100705.75;5054403;28;20070;-49
2023/03/22 10:53:45;;;;;;;10.07;2.60;;;;;;;10.54;100.00;100706.69;5072659;28;20064;-50
2023/03/22 10:56:17;;;;;;;11.88;2.60;;;;;;;10.53;100.00;100709.22;5071864;28;20053;-49
2023/03/22 10:58:43;;;;;;;9.95;2.42;;;;;;;10.46;100.00;100713.34;5071340;28;20430;-49
2023/03/22 11:01:14;;;;;;;8.05;2.40;;;;;;;10.43;100.00;100709.00;5078691;28;20027;-49
2023/03/22 11:03:47;;;;;;;10.75;2.63;;;;;;;10.38;100.00;100707.13;5082221;28;20039;-49
2023/03/22 11:06:34;;;;;;;8.57;2.67;;;;;;;10.32;100.00;100710.41;5078266;28;20027;-50
2023/03/22 11:09:11;;;;;;;9.43;3.03;;;;;;;10.31;100.00;100703.50;5071001;28;20036;-48
2023/03/22 11:11:52;;;;;;;7.75;2.53;;;;;;;10.34;100.00;100705.31;5075332;28;20025;-50
2023/03/22 11:14:29;;;;;;;8.48;2.60;;;;;;;10.40;100.00;100698.63;5077375;28;20055;-51
2023/03/22 11:16:59;;;;;;;7.38;2.83;;;;;;;10.42;100.00;100704.66;5080145;28;20021;-47
2023/03/22 11:19:32;;;;;;;10.05;2.72;;;;;;;10.50;100.00;100699.75;5078120;28;20024;-48
2023/03/22 11:21:59;;;;;;;14.13;3.30;;;;;;;10.54;100.00;100709.25;5074057;28;20032;-47
2023/03/22 11:24:26;;;;;;;13.80;3.40;;;;;;;10.55;100.00;100699.84;5074730;28;20352;-49
2023/03/22 11:27:01;;;;;;;9.15;3.03;;;;;;;10.62;100.00;100692.34;5075120;28;20104;-47